Time;durP1;ratioP1;P1;durP2;ratioP2;P2;SDS_P1;SDS_P2;PMS_P1;PMS_P2;Temp;Humidity;BMP_temperature;BMP_pressure;BME280_temperature;BME280_humidity;BME280_pressure;Samples;Min_cycle;Max_cycle;Signal;HPM_P1;HPM_P2
2022/05/25 00:01:48;;;;;;;3.33;2.60;;;14.90;99.90;;;;;;5055139;28;20562;-66
2022/05/25 00:04:15;;;;;;;2.80;2.13;;;14.80;99.90;;;;;;5055236;28;20928;-65
2022/05/25 00:06:42;;;;;;;6.73;3.57;;;14.80;99.90;;;;;;5055142;28;20824;-65
2022/05/25 00:09:09;;;;;;;3.50;2.60;;;14.80;99.90;;;;;;5055049;28;20476;-65
2022/05/25 00:11:36;;;;;;;3.97;2.80;;;14.80;99.90;;;;;;5055031;28;20543;-67
2022/05/25 00:14:05;;;;;;;4.00;2.80;;;14.80;99.90;;;;;;5055108;28;20527;-66
2022/05/25 00:16:32;;;;;;;5.97;3.10;;;14.80;99.90;;;;;;5054919;28;20532;-67
2022/05/25 00:21:43;;;;;;;3.70;2.87;;;14.80;99.90;;;;;;5054842;28;20433;-65
2022/05/25 00:24:10;;;;;;;3.40;2.37;;;14.80;99.90;;;;;;5054606;28;20441;-66
2022/05/25 00:26:37;;;;;;;3.10;2.40;;;14.80;99.90;;;;;;5054843;28;20811;-66
2022/05/25 00:29:06;;;;;;;3.60;2.83;;;14.80;99.90;;;;;;5054430;28;20488;-65
2022/05/25 00:31:33;;;;;;;4.40;3.60;;;14.80;99.90;;;;;;5054816;28;20528;-65
2022/05/25 00:34:00;;;;;;;3.10;2.37;;;14.80;99.90;;;;;;5054616;28;20479;-66
2022/05/25 00:36:27;;;;;;;3.90;2.60;;;14.80;99.90;;;;;;5054698;28;20451;-66
2022/05/25 00:38:54;;;;;;;3.67;2.70;;;14.80;99.90;;;;;;5054666;28;20523;-66
2022/05/25 00:41:25;;;;;;;5.17;2.93;;;14.80;99.90;;;;;;5054457;28;20465;-65
2022/05/25 00:43:51;;;;;;;3.57;2.83;;;14.90;99.90;;;;;;5054501;28;20775;-65
2022/05/25 00:46:22;;;;;;;4.27;3.23;;;14.90;99.90;;;;;;5054308;28;20942;-65
2022/05/25 00:48:52;;;;;;;3.80;2.60;;;14.90;99.90;;;;;;5054188;28;20504;-66
2022/05/25 00:51:24;;;;;;;4.60;2.87;;;14.90;99.90;;;;;;5054129;28;20991;-66
2022/05/25 00:53:57;;;;;;;5.23;2.50;;;15.00;99.90;;;;;;5054561;28;20445;-65
2022/05/25 00:56:27;;;;;;;3.90;3.50;;;15.00;99.90;;;;;;5054207;28;20448;-65
2022/05/25 00:58:58;;;;;;;5.00;3.40;;;15.00;99.90;;;;;;5053574;28;20532;-65
2022/05/25 01:01:28;;;;;;;3.93;3.37;;;15.00;99.90;;;;;;5054166;28;20488;-65
2022/05/25 01:03:55;;;;;;;8.60;3.70;;;14.90;99.90;;;;;;5053865;28;20437;-65
2022/05/25 01:06:53;;;;;;;4.47;3.23;;;14.90;99.90;;;;;;5052847;28;20440;-65
2022/05/25 01:09:31;;;;;;;4.67;3.73;;;14.90;99.90;;;;;;5032537;28;20477;-65
2022/05/25 01:12:09;;;;;;;5.03;3.43;;;14.90;99.90;;;;;;5053901;28;20539;-65
2022/05/25 01:14:55;;;;;;;3.63;3.00;;;14.90;99.90;;;;;;5053471;28;20472;-65
2022/05/25 01:17:36;;;;;;;6.40;3.40;;;14.90;99.90;;;;;;5054039;28;20519;-65
2022/05/25 01:20:11;;;;;;;3.90;3.50;;;14.90;99.90;;;;;;5053852;28;20472;-65
2022/05/25 01:23:04;;;;;;;4.23;3.80;;;14.90;99.90;;;;;;5053792;28;20531;-65
2022/05/25 01:25:57;;;;;;;5.23;3.10;;;14.90;99.90;;;;;;5040244;28;20544;-67
2022/05/25 01:28:37;;;;;;;4.27;3.13;;;14.90;99.90;;;;;;5053206;28;21041;-65
2022/05/25 01:31:10;;;;;;;3.20;2.90;;;14.90;99.90;;;;;;5053520;28;20483;-65
2022/05/25 01:33:42;;;;;;;5.50;2.70;;;14.90;99.90;;;;;;5053695;28;20524;-65
2022/05/25 01:36:15;;;;;;;4.20;3.20;;;14.90;99.90;;;;;;5053733;28;20520;-67
2022/05/25 01:38:48;;;;;;;4.77;3.30;;;14.90;99.90;;;;;;5053107;28;20955;-66
2022/05/25 01:41:21;;;;;;;3.70;2.93;;;14.80;99.90;;;;;;5053317;28;20951;-65
2022/05/25 01:43:52;;;;;;;4.30;3.03;;;14.80;99.90;;;;;;5053335;28;20523;-65
2022/05/25 01:46:23;;;;;;;4.83;3.60;;;14.80;99.90;;;;;;5053159;28;20860;-65
2022/05/25 01:48:51;;;;;;;4.90;2.87;;;14.80;99.90;;;;;;5052685;28;20567;-66
2022/05/25 01:51:33;;;;;;;4.13;3.20;;;14.80;99.90;;;;;;5052755;28;20472;-65
2022/05/25 01:54:02;;;;;;;4.90;3.50;;;14.70;99.90;;;;;;5053221;28;20482;-65
2022/05/25 01:56:33;;;;;;;3.93;3.23;;;14.60;99.90;;;;;;5053013;28;20523;-65
2022/05/25 01:59:05;;;;;;;3.80;3.10;;;14.60;99.90;;;;;;5053077;28;20476;-67
2022/05/25 02:01:33;;;;;;;6.90;2.80;;;14.60;99.90;;;;;;5053107;28;20551;-66
2022/05/25 02:07:05;;;;;;;5.23;2.70;;;14.50;99.90;;;;;;5052753;28;20424;-65
2022/05/25 02:09:53;;;;;;;3.13;2.63;;;14.50;99.90;;;;;;5052722;28;20571;-65
2022/05/25 02:12:34;;;;;;;3.13;2.40;;;14.50;99.90;;;;;;5052762;28;20447;-65
2022/05/25 02:15:10;;;;;;;5.20;3.20;;;14.50;99.90;;;;;;5052687;28;20495;-65
2022/05/25 02:17:47;;;;;;;4.27;2.93;;;14.60;99.90;;;;;;5052451;28;20441;-65
2022/05/25 02:20:23;;;;;;;4.47;2.83;;;14.50;99.90;;;;;;5052875;28;20437;-65
2022/05/25 02:22:52;;;;;;;3.40;2.50;;;14.60;99.90;;;;;;5052501;28;20441;-65
2022/05/25 02:25:23;;;;;;;7.30;3.27;;;14.60;99.90;;;;;;5052376;28;20886;-65
2022/05/25 02:27:55;;;;;;;3.90;2.30;;;14.60;99.90;;;;;;5052525;28;20536;-66
2022/05/25 02:30:24;;;;;;;4.50;2.10;;;14.60;99.90;;;;;;5052094;28;20580;-65
2022/05/25 02:32:57;;;;;;;4.00;2.60;;;14.60;99.90;;;;;;5052181;28;20631;-65
2022/05/25 02:35:26;;;;;;;3.53;2.40;;;14.60;99.90;;;;;;5052460;28;20528;-65
2022/05/25 02:37:57;;;;;;;3.33;2.03;;;14.60;99.90;;;;;;5052482;28;20516;-65
2022/05/25 02:40:24;;;;;;;3.73;2.87;;;14.60;99.90;;;;;;5052380;28;20527;-65
2022/05/25 02:42:51;;;;;;;2.50;1.70;;;14.60;99.90;;;;;;5052304;28;20623;-66
2022/05/25 02:45:18;;;;;;;3.23;1.97;;;14.60;99.90;;;;;;5052083;28;21009;-66
2022/05/25 02:47:45;;;;;;;8.97;2.30;;;14.60;99.90;;;;;;5051862;28;20559;-68
2022/05/25 02:50:13;;;;;;;3.60;1.80;;;14.60;99.90;;;;;;5052198;28;20526;-66
2022/05/25 02:52:40;;;;;;;4.23;2.10;;;14.60;99.90;;;;;;5052211;28;21042;-65
2022/05/25 02:55:09;;;;;;;4.90;2.50;;;14.60;99.90;;;;;;5052388;28;20525;-66
2022/05/25 02:57:36;;;;;;;3.77;2.40;;;14.60;99.90;;;;;;5052247;28;20529;-65
2022/05/25 03:00:05;;;;;;;2.73;1.77;;;14.60;99.90;;;;;;5052119;28;20532;-65
2022/05/25 03:02:32;;;;;;;3.10;2.17;;;14.60;99.90;;;;;;5052090;28;20528;-65
2022/05/25 03:04:59;;;;;;;2.60;1.63;;;14.60;99.90;;;;;;5052226;28;20442;-65
2022/05/25 03:07:27;;;;;;;4.43;1.97;;;14.60;99.90;;;;;;5051773;28;20528;-65
2022/05/25 03:09:54;;;;;;;5.40;1.97;;;14.60;99.90;;;;;;5052118;28;20487;-65
2022/05/25 03:12:21;;;;;;;5.07;3.77;;;14.60;99.90;;;;;;5051754;28;20535;-65
2022/05/25 03:14:48;;;;;;;2.90;2.00;;;14.50;99.90;;;;;;5051709;28;20540;-65
2022/05/25 03:17:15;;;;;;;5.63;2.47;;;14.50;99.90;;;;;;5051568;28;20520;-66
2022/05/25 03:19:44;;;;;;;2.60;2.10;;;14.50;99.90;;;;;;5051914;28;20523;-66
2022/05/25 03:22:11;;;;;;;3.83;2.63;;;14.50;99.90;;;;;;5051954;28;20467;-65
2022/05/25 03:24:39;;;;;;;4.00;2.30;;;14.50;99.90;;;;;;5052053;28;20527;-65
2022/05/25 03:27:06;;;;;;;5.97;2.20;;;14.50;99.90;;;;;;5051950;28;20441;-65
2022/05/25 03:29:33;;;;;;;2.80;2.00;;;14.50;99.90;;;;;;5054333;28;20998;-65
2022/05/25 03:32:00;;;;;;;4.10;2.40;;;14.50;99.90;;;;;;5055591;28;20971;-65
2022/05/25 03:34:28;;;;;;;2.93;1.97;;;14.50;99.90;;;;;;5055796;28;20523;-65
2022/05/25 03:36:55;;;;;;;4.10;2.20;;;14.50;99.90;;;;;;5055258;28;20443;-65
2022/05/25 03:39:23;;;;;;;2.57;2.27;;;14.50;99.90;;;;;;5055638;28;20441;-65
2022/05/25 03:41:54;;;;;;;2.93;1.80;;;14.50;99.90;;;;;;5055303;28;20441;-65
2022/05/25 03:44:22;;;;;;;3.33;2.70;;;14.60;99.90;;;;;;5055548;28;20520;-65
2022/05/25 03:46:49;;;;;;;3.70;2.70;;;14.50;99.90;;;;;;5055203;28;20448;-65
2022/05/25 03:49:17;;;;;;;5.70;2.07;;;14.50;99.90;;;;;;5054966;28;20583;-66
2022/05/25 03:51:44;;;;;;;6.03;2.70;;;14.50;99.90;;;;;;5055513;28;20539;-66
2022/05/25 03:54:11;;;;;;;4.00;2.77;;;14.50;99.90;;;;;;5054834;28;20443;-65
2022/05/25 03:56:38;;;;;;;3.07;2.60;;;14.60;99.90;;;;;;5055390;28;20436;-64
2022/05/25 03:59:07;;;;;;;3.13;2.60;;;14.60;99.90;;;;;;5055299;28;20950;-65
2022/05/25 04:01:36;;;;;;;6.90;3.00;;;14.60;99.90;;;;;;5055258;28;20533;-66
2022/05/25 04:04:03;;;;;;;4.13;2.83;;;14.60;99.90;;;;;;5055510;28;20451;-65
2022/05/25 04:06:31;;;;;;;3.43;2.53;;;14.60;99.90;;;;;;5055537;28;20527;-65
2022/05/25 04:08:57;;;;;;;5.97;2.73;;;14.70;99.90;;;;;;5055420;28;20472;-65
2022/05/25 04:11:24;;;;;;;4.20;3.00;;;14.70;99.90;;;;;;5055439;28;20524;-65
2022/05/25 04:13:51;;;;;;;4.50;3.30;;;14.70;99.90;;;;;;5055263;28;20441;-65
2022/05/25 04:16:19;;;;;;;5.17;3.93;;;14.80;99.90;;;;;;5055240;28;20535;-65
2022/05/25 04:18:46;;;;;;;4.70;3.43;;;14.80;99.90;;;;;;5055106;28;21030;-65
2022/05/25 04:21:13;;;;;;;4.07;3.00;;;14.80;99.90;;;;;;5055439;28;20447;-66
2022/05/25 04:23:40;;;;;;;4.73;3.50;;;14.80;99.90;;;;;;5055402;28;20483;-67
2022/05/25 04:26:07;;;;;;;3.43;2.80;;;14.80;99.90;;;;;;5055293;28;20524;-65
2022/05/25 04:28:34;;;;;;;4.70;3.00;;;14.90;99.90;;;;;;5055207;28;21001;-65
2022/05/25 04:31:01;;;;;;;4.37;3.40;;;14.80;99.90;;;;;;5054887;28;20571;-65
2022/05/25 04:33:30;;;;;;;3.80;3.03;;;14.90;99.90;;;;;;5054632;28;20441;-65
2022/05/25 04:35:58;;;;;;;4.83;2.50;;;14.90;99.90;;;;;;5054762;28;20519;-65
2022/05/25 04:38:25;;;;;;;5.53;3.70;;;14.90;99.90;;;;;;5054893;28;20864;-66
2022/05/25 04:40:52;;;;;;;3.70;3.00;;;14.90;99.90;;;;;;5054358;28;21018;-65
2022/05/25 04:43:23;;;;;;;4.17;3.30;;;14.90;99.90;;;;;;5054608;28;20991;-65
2022/05/25 04:45:51;;;;;;;3.70;2.90;;;14.90;99.90;;;;;;5054647;28;20524;-65
2022/05/25 04:48:21;;;;;;;4.97;2.90;;;14.90;99.90;;;;;;5054703;28;20559;-65
2022/05/25 04:50:53;;;;;;;4.20;3.00;;;14.90;99.90;;;;;;5054436;28;20567;-67
2022/05/25 04:53:22;;;;;;;4.50;3.20;;;14.90;99.90;;;;;;5054807;28;20436;-65
2022/05/25 04:58:37;;;;;;;3.67;3.10;;;14.90;99.90;;;;;;5054745;28;20479;-65
2022/05/25 05:01:06;;;;;;;3.90;3.30;;;14.90;99.90;;;;;;5054603;28;20835;-65
2022/05/25 05:03:33;;;;;;;5.30;4.13;;;14.90;99.90;;;;;;5054548;28;20441;-65
2022/05/25 05:06:02;;;;;;;6.07;3.67;;;14.90;99.90;;;;;;5054534;28;20476;-66
2022/05/25 05:08:29;;;;;;;5.07;3.93;;;14.90;99.90;;;;;;5054359;28;20536;-65
2022/05/25 05:10:57;;;;;;;4.83;4.30;;;14.90;99.90;;;;;;5054218;28;20495;-65
2022/05/25 05:13:24;;;;;;;4.60;4.10;;;14.90;99.90;;;;;;5054019;28;20868;-65
2022/05/25 05:15:53;;;;;;;5.97;4.10;;;15.00;99.90;;;;;;5054140;28;20448;-65
2022/05/25 05:18:23;;;;;;;5.70;4.37;;;15.00;99.90;;;;;;5054178;28;20443;-66
2022/05/25 05:20:50;;;;;;;5.93;4.40;;;15.00;99.90;;;;;;5054135;28;20440;-65
2022/05/25 05:23:18;;;;;;;6.43;5.53;;;15.00;99.90;;;;;;5053813;28;20528;-65
2022/05/25 05:25:45;;;;;;;6.47;5.27;;;15.00;99.90;;;;;;5054034;28;20532;-65
2022/05/25 05:28:16;;;;;;;6.80;6.10;;;15.00;99.90;;;;;;5054035;28;20479;-65
2022/05/25 05:30:48;;;;;;;5.93;5.33;;;15.00;99.90;;;;;;5053363;28;20974;-66
2022/05/25 05:33:15;;;;;;;7.77;6.40;;;15.00;99.90;;;;;;5053557;28;20428;-65
2022/05/25 05:35:44;;;;;;;7.90;7.00;;;15.00;99.90;;;;;;5053739;28;20969;-66
2022/05/25 05:38:12;;;;;;;7.80;5.77;;;15.00;99.90;;;;;;5053983;28;20855;-65
2022/05/25 05:40:41;;;;;;;9.70;5.60;;;15.00;99.90;;;;;;5053566;28;20455;-65
2022/05/25 05:43:09;;;;;;;6.73;5.47;;;15.00;99.90;;;;;;5053882;28;21018;-65
2022/05/25 05:45:40;;;;;;;8.33;6.63;;;15.00;99.90;;;;;;5053867;28;20582;-65
2022/05/25 05:48:13;;;;;;;7.27;5.90;;;15.00;99.90;;;;;;5053571;28;20463;-70
2022/05/25 05:50:42;;;;;;;6.57;5.60;;;15.00;99.90;;;;;;5053278;28;20562;-65
2022/05/25 05:53:11;;;;;;;6.20;5.60;;;15.10;99.90;;;;;;5053427;28;20443;-65
2022/05/25 05:55:40;;;;;;;8.47;6.90;;;15.10;99.90;;;;;;5053547;28;20852;-65
2022/05/25 05:58:07;;;;;;;8.57;7.50;;;15.10;99.90;;;;;;5053450;28;20532;-65
2022/05/25 06:00:34;;;;;;;10.03;7.33;;;15.10;99.90;;;;;;5053247;28;20866;-65
2022/05/25 06:03:01;;;;;;;8.57;6.70;;;15.10;99.90;;;;;;5053137;28;20864;-65
2022/05/25 06:05:29;;;;;;;8.27;5.60;;;15.20;99.90;;;;;;5053171;28;20975;-65
2022/05/25 06:07:56;;;;;;;11.20;6.23;;;15.20;99.90;;;;;;5053464;28;20520;-65
2022/05/25 06:10:23;;;;;;;8.23;7.43;;;15.20;99.90;;;;;;5053164;28;21052;-65
2022/05/25 06:12:51;;;;;;;6.60;5.90;;;15.30;99.90;;;;;;5053271;28;21006;-65
2022/05/25 06:20:48;;;;;;;9.50;8.37;;;15.50;99.90;;;;;;5053293;28;20424;-66
2022/05/25 06:23:15;;;;;;;7.17;6.27;;;15.50;99.90;;;;;;5052967;28;20447;-65
2022/05/25 06:25:42;;;;;;;8.03;6.30;;;15.50;99.90;;;;;;5052622;28;20523;-65
2022/05/25 06:28:11;;;;;;;7.50;5.90;;;15.50;99.90;;;;;;5053135;28;20460;-65
2022/05/25 06:30:38;;;;;;;8.73;6.40;;;15.50;99.90;;;;;;5052611;28;20575;-65
2022/05/25 06:33:06;;;;;;;6.87;5.80;;;15.60;99.90;;;;;;5052688;28;20433;-65
2022/05/25 06:35:34;;;;;;;5.50;4.77;;;15.60;99.90;;;;;;5052843;28;20531;-66
2022/05/25 06:38:01;;;;;;;6.60;5.90;;;15.60;99.90;;;;;;5052991;28;20561;-65
2022/05/25 06:40:28;;;;;;;6.30;5.70;;;15.60;99.90;;;;;;5052944;28;20536;-65
2022/05/25 06:42:55;;;;;;;5.90;5.30;;;15.70;99.90;;;;;;5052334;28;20441;-65
2022/05/25 06:45:23;;;;;;;6.37;4.43;;;15.80;99.90;;;;;;5052753;28;20830;-65
2022/05/25 06:47:51;;;;;;;6.50;5.27;;;15.80;99.90;;;;;;5052343;28;20567;-66
2022/05/25 06:50:18;;;;;;;5.50;4.93;;;15.90;99.90;;;;;;5052695;28;20550;-67
2022/05/25 06:52:45;;;;;;;5.93;4.83;;;16.00;99.90;;;;;;5052624;28;20612;-66
2022/05/25 06:55:11;;;;;;;6.33;4.30;;;16.00;99.90;;;;;;5052764;28;20445;-66
2022/05/25 06:57:40;;;;;;;5.67;5.00;;;16.10;99.90;;;;;;5052273;28;20531;-65
2022/05/25 07:00:08;;;;;;;4.77;3.80;;;16.20;99.90;;;;;;5052682;28;20437;-66
2022/05/25 07:02:36;;;;;;;6.47;3.80;;;16.20;99.90;;;;;;5054211;28;20476;-65
2022/05/25 07:05:04;;;;;;;5.60;3.63;;;16.30;99.90;;;;;;5056794;28;20436;-65
2022/05/25 07:07:32;;;;;;;4.53;3.10;;;16.30;99.90;;;;;;5056689;28;20977;-65
2022/05/25 07:09:59;;;;;;;3.13;2.60;;;16.40;99.90;;;;;;5056490;28;20472;-65
2022/05/25 07:12:26;;;;;;;4.10;2.37;;;16.50;99.90;;;;;;5056577;28;20527;-66
2022/05/25 07:14:53;;;;;;;3.67;2.03;;;16.60;99.90;;;;;;5056313;28;20472;-65
2022/05/25 07:17:20;;;;;;;2.70;1.80;;;16.60;98.80;;;;;;5056370;28;20519;-66
2022/05/25 07:19:48;;;;;;;3.77;2.27;;;16.70;98.00;;;;;;5056474;28;20529;-65
2022/05/25 07:22:15;;;;;;;3.17;1.90;;;16.60;97.60;;;;;;5056128;28;20531;-65
2022/05/25 07:24:42;;;;;;;3.00;1.90;;;16.70;97.50;;;;;;5055946;28;20531;-66
2022/05/25 07:27:09;;;;;;;2.40;1.40;;;16.70;97.40;;;;;;5056256;28;20536;-65
2022/05/25 07:29:36;;;;;;;3.37;1.90;;;16.60;97.40;;;;;;5055929;28;21018;-65
2022/05/25 07:32:06;;;;;;;4.00;1.60;;;16.60;97.50;;;;;;5056188;28;20486;-65
2022/05/25 07:34:38;;;;;;;2.03;1.10;;;16.60;96.90;;;;;;5056081;28;20923;-65
2022/05/25 07:37:11;;;;;;;4.10;1.70;;;16.60;97.00;;;;;;5055964;28;20507;-65
2022/05/25 07:39:43;;;;;;;2.60;1.40;;;16.80;97.80;;;;;;5055861;28;20447;-65
2022/05/25 07:42:12;;;;;;;2.10;1.10;;;16.90;97.70;;;;;;5055921;28;20531;-65
2022/05/25 07:44:42;;;;;;;2.43;1.10;;;17.00;97.40;;;;;;5056080;28;20524;-66
2022/05/25 07:47:09;;;;;;;6.73;1.03;;;17.10;96.50;;;;;;5056112;28;20453;-65
2022/05/25 07:49:35;;;;;;;3.50;1.27;;;17.20;96.20;;;;;;5056005;28;20531;-66
2022/05/25 07:52:03;;;;;;;3.00;1.27;;;17.30;95.90;;;;;;5055794;28;20481;-65
2022/05/25 07:54:32;;;;;;;3.50;1.50;;;17.30;95.30;;;;;;5055922;28;20527;-65
2022/05/25 07:57:00;;;;;;;2.20;1.40;;;17.30;95.00;;;;;;5055807;28;20840;-65
2022/05/25 07:59:27;;;;;;;2.33;1.17;;;17.20;94.30;;;;;;5055671;28;20437;-65
2022/05/25 08:07:33;;;;;;;3.23;1.10;;;17.30;94.30;;;;;;5055563;28;21024;-65
2022/05/25 08:10:07;;;;;;;2.10;0.90;;;17.40;94.50;;;;;;5055149;28;20464;-65
2022/05/25 08:12:36;;;;;;;1.97;0.90;;;17.50;94.10;;;;;;5055659;28;20525;-65
2022/05/25 08:15:04;;;;;;;1.97;0.80;;;17.50;91.80;;;;;;5054913;28;20508;-65
2022/05/25 08:17:31;;;;;;;3.00;1.10;;;17.50;90.50;;;;;;5055473;28;20452;-65
2022/05/25 08:19:58;;;;;;;1.77;1.00;;;17.40;90.50;;;;;;5055293;28;20441;-65
2022/05/25 08:22:25;;;;;;;2.00;1.17;;;17.40;91.00;;;;;;5055120;28;20536;-65
2022/05/25 08:24:52;;;;;;;5.70;1.80;;;17.30;89.30;;;;;;5055182;28;20449;-65
2022/05/25 08:27:21;;;;;;;1.63;0.77;;;17.30;88.60;;;;;;5055048;28;20441;-66
2022/05/25 08:29:48;;;;;;;1.70;1.00;;;17.30;87.90;;;;;;5054944;28;20531;-65
2022/05/25 08:32:15;;;;;;;1.60;0.60;;;17.30;86.60;;;;;;5054783;28;20486;-65
2022/05/25 08:34:43;;;;;;;2.20;1.00;;;17.30;86.60;;;;;;5055148;28;20464;-65
2022/05/25 08:37:10;;;;;;;2.23;1.20;;;17.30;85.10;;;;;;5054694;28;21022;-66
2022/05/25 08:39:37;;;;;;;2.17;0.90;;;17.30;85.20;;;;;;5054679;28;20936;-65
2022/05/25 08:42:07;;;;;;;2.37;0.93;;;17.30;86.00;;;;;;5054800;28;21015;-65
2022/05/25 08:44:37;;;;;;;1.80;1.23;;;17.30;87.60;;;;;;5054735;28;20815;-66
2022/05/25 08:47:07;;;;;;;1.70;0.80;;;17.30;86.80;;;;;;5054675;28;20531;-66
2022/05/25 08:49:37;;;;;;;2.13;1.20;;;17.30;84.90;;;;;;5054975;28;20441;-65
2022/05/25 08:52:16;;;;;;;3.70;1.10;;;17.20;85.70;;;;;;5054702;28;20591;-65
2022/05/25 08:54:43;;;;;;;1.70;0.83;;;17.20;82.80;;;;;;5054963;28;20519;-66
2022/05/25 08:57:17;;;;;;;2.33;1.00;;;17.30;82.80;;;;;;5054484;28;20443;-65
2022/05/25 08:59:50;;;;;;;2.33;1.27;;;17.30;83.80;;;;;;5054529;28;20466;-65
2022/05/25 09:02:27;;;;;;;2.30;1.07;;;17.50;85.10;;;;;;5054613;28;20777;-66
2022/05/25 09:05:01;;;;;;;2.03;1.03;;;17.40;85.50;;;;;;5054629;28;20444;-65
2022/05/25 09:07:36;;;;;;;2.20;0.80;;;17.50;86.60;;;;;;5054684;28;20440;-65
2022/05/25 09:10:03;;;;;;;1.70;0.90;;;17.60;86.90;;;;;;5054030;28;21017;-65
2022/05/25 09:12:37;;;;;;;3.13;1.00;;;17.70;86.90;;;;;;5053975;28;21010;-65
2022/05/25 09:15:09;;;;;;;2.10;1.00;;;17.80;88.10;;;;;;5054529;28;20539;-65
2022/05/25 09:17:41;;;;;;;2.50;1.30;;;17.90;86.40;;;;;;5053990;28;20548;-66
2022/05/25 09:20:12;;;;;;;2.43;1.00;;;17.90;88.40;;;;;;5054267;28;20433;-66
2022/05/25 09:22:41;;;;;;;1.90;0.70;;;18.00;85.60;;;;;;5054276;28;20436;-65
2022/05/25 09:25:10;;;;;;;2.13;1.00;;;18.00;84.90;;;;;;5053886;28;20442;-65
2022/05/25 09:27:40;;;;;;;1.93;1.00;;;18.10;84.00;;;;;;5053238;28;20961;-65
2022/05/25 09:30:10;;;;;;;2.37;1.33;;;18.10;84.10;;;;;;5054225;28;20440;-65
2022/05/25 09:32:43;;;;;;;2.00;1.33;;;18.00;80.60;;;;;;5053851;28;20492;-65
2022/05/25 09:35:15;;;;;;;2.13;0.93;;;17.80;80.40;;;;;;5054180;28;20866;-65
2022/05/25 09:37:49;;;;;;;1.87;0.83;;;17.80;80.90;;;;;;5053873;28;20449;-65
2022/05/25 09:40:22;;;;;;;2.50;1.03;;;17.70;82.10;;;;;;5053998;28;20436;-66
2022/05/25 09:42:55;;;;;;;2.00;1.10;;;17.80;84.80;;;;;;5053813;28;20529;-66
2022/05/25 09:45:25;;;;;;;2.90;1.10;;;18.00;85.40;;;;;;5053876;28;20555;-65
2022/05/25 09:48:22;;;;;;;3.50;1.83;;;18.10;84.60;;;;;;5091206;27;20517;-64
2022/05/25 09:50:52;;;;;;;2.53;1.73;;;18.30;85.60;;;;;;5090584;28;20435;-64
2022/05/25 09:53:22;;;;;;;2.97;2.07;;;18.60;83.40;;;;;;5090741;28;20530;-64
2022/05/25 09:55:53;;;;;;;2.27;1.63;;;18.90;83.70;;;;;;5090496;28;20518;-65
2022/05/25 09:58:26;;;;;;;2.83;1.23;;;19.30;79.10;;;;;;5090486;28;20446;-64
2022/05/25 10:00:57;;;;;;;2.43;1.10;;;19.60;79.50;;;;;;5090103;28;20526;-64
2022/05/25 10:03:34;;;;;;;1.83;0.90;;;19.90;77.80;;;;;;5089995;28;20466;-64
2022/05/25 10:06:15;;;;;;;3.03;1.07;;;20.00;75.10;;;;;;5089995;28;20577;-65
2022/05/25 10:08:42;;;;;;;2.70;1.90;;;20.00;74.80;;;;;;5090250;28;20518;-65
2022/05/25 10:11:31;;;;;;;2.73;1.33;;;20.00;77.30;;;;;;5090290;28;20526;-64
2022/05/25 10:14:16;;;;;;;2.30;1.50;;;20.20;76.00;;;;;;5090228;28;20435;-64
2022/05/25 10:16:43;;;;;;;3.20;2.17;;;20.70;73.30;;;;;;5089820;28;20502;-65
2022/05/25 10:19:13;;;;;;;3.93;2.40;;;20.90;72.40;;;;;;5089954;28;21004;-64
2022/05/25 10:21:46;;;;;;;2.57;1.13;;;21.40;75.40;;;;;;5089556;28;20415;-64
2022/05/25 10:24:16;;;;;;;2.07;1.10;;;22.00;74.80;;;;;;5089981;28;20530;-65
2022/05/25 10:26:48;;;;;;;2.23;1.17;;;22.50;72.20;;;;;;5089463;28;20841;-65
2022/05/25 10:37:58;;;;;;;2.00;0.90;;;22.40;63.60;;;;;;5089354;28;20418;-65
2022/05/25 10:40:26;;;;;;;2.60;0.87;;;22.40;64.40;;;;;;5088926;28;21035;-65
2022/05/25 10:42:58;;;;;;;1.93;0.93;;;22.40;63.80;;;;;;5089325;28;20502;-65
2022/05/25 10:45:33;;;;;;;1.90;0.70;;;22.40;61.60;;;;;;5089429;28;20518;-64
2022/05/25 10:48:18;;;;;;;3.20;0.80;;;22.40;58.00;;;;;;5089403;28;20486;-64
2022/05/25 10:50:53;;;;;;;2.43;0.60;;;22.20;57.80;;;;;;5089459;28;20455;-64
2022/05/25 10:53:28;;;;;;;1.60;0.57;;;22.30;57.80;;;;;;5089333;28;20526;-65
2022/05/25 10:56:02;;;;;;;1.50;0.60;;;22.40;57.40;;;;;;5089156;28;20445;-64
2022/05/25 10:58:47;;;;;;;1.87;0.90;;;22.50;54.30;;;;;;5080644;28;20446;-64
2022/05/25 11:01:24;;;;;;;1.50;0.53;;;22.50;56.90;;;;;;5075876;28;20471;-64
2022/05/25 11:04:30;;;;;;;2.47;0.70;;;22.50;55.30;;;;;;5075800;28;20440;-64
2022/05/25 11:07:14;;;;;;;2.20;0.50;;;22.50;57.00;;;;;;5075582;28;20574;-64
2022/05/25 11:10:21;;;;;;;1.50;0.50;;;22.50;55.40;;;;;;5075177;28;20511;-66
2022/05/25 11:13:00;;;;;;;2.10;0.80;;;22.40;54.70;;;;;;5067020;28;20505;-65
2022/05/25 11:15:34;;;;;;;1.50;0.70;;;22.50;54.20;;;;;;5075694;28;20467;-64
2022/05/25 11:18:15;;;;;;;1.60;0.60;;;22.60;54.40;;;;;;5075600;28;20452;-64
2022/05/25 11:20:49;;;;;;;1.80;0.70;;;22.60;53.90;;;;;;5075406;28;20508;-65
2022/05/25 11:23:35;;;;;;;1.90;0.70;;;22.60;54.40;;;;;;5075526;28;20447;-65
2022/05/25 11:26:20;;;;;;;2.00;0.80;;;22.60;54.50;;;;;;5075229;28;20519;-65
2022/05/25 11:28:56;;;;;;;1.60;0.80;;;22.60;56.50;;;;;;5075133;28;20436;-65
2022/05/25 11:31:36;;;;;;;2.10;1.10;;;22.50;56.80;;;;;;5074952;28;20440;-64
2022/05/25 11:34:28;;;;;;;2.10;0.70;;;22.40;56.30;;;;;;5075009;28;20442;-65
2022/05/25 11:37:14;;;;;;;1.60;0.80;;;22.10;56.10;;;;;;5075129;28;20432;-64
2022/05/25 11:39:55;;;;;;;1.87;0.83;;;21.90;58.50;;;;;;5074669;28;20459;-65
2022/05/25 11:42:39;;;;;;;2.17;0.80;;;21.80;58.30;;;;;;5074936;28;20479;-65
2022/05/25 11:45:22;;;;;;;1.90;0.80;;;21.60;56.20;;;;;;5074851;28;20432;-64
2022/05/25 11:48:12;;;;;;;1.90;0.70;;;21.40;57.10;;;;;;5074691;28;20574;-65
2022/05/25 11:50:45;;;;;;;3.03;0.80;;;21.20;58.00;;;;;;5075161;28;20436;-64
2022/05/25 11:53:39;;;;;;;1.60;0.80;;;21.00;57.80;;;;;;5074759;28;20523;-65
2022/05/25 11:56:22;;;;;;;2.53;0.70;;;20.80;57.80;;;;;;5074318;28;20474;-65
2022/05/25 11:59:05;;;;;;;2.27;0.90;;;20.60;59.20;;;;;;5074925;28;20462;-65
2022/05/25 12:01:37;;;;;;;7.30;1.40;;;20.50;59.60;;;;;;5074151;28;20456;-64
2022/05/25 12:04:24;;;;;;;1.80;0.63;;;20.50;59.70;;;;;;5074644;28;20530;-64
2022/05/25 12:07:05;;;;;;;1.80;0.83;;;20.50;60.30;;;;;;5074589;28;20479;-65
2022/05/25 12:10:01;;;;;;;1.70;0.60;;;20.70;61.60;;;;;;5073458;28;20484;-65
2022/05/25 12:12:36;;;;;;;1.60;0.80;;;20.90;58.60;;;;;;5074162;28;20471;-64
2022/05/25 12:15:10;;;;;;;1.60;0.60;;;21.10;58.40;;;;;;5074339;28;20973;-64
2022/05/25 12:17:50;;;;;;;1.60;0.67;;;21.40;58.70;;;;;;5074791;28;20467;-65
2022/05/25 12:20:24;;;;;;;1.90;0.80;;;21.70;58.60;;;;;;5074115;28;20490;-64
2022/05/25 12:22:54;;;;;;;1.63;0.67;;;22.00;56.70;;;;;;5074316;28;20819;-64
2022/05/25 12:25:22;;;;;;;2.03;0.70;;;22.20;57.20;;;;;;5074159;28;20534;-65
2022/05/25 12:27:53;;;;;;;1.83;0.77;;;22.30;54.60;;;;;;5074056;28;20479;-65
2022/05/25 12:30:30;;;;;;;1.90;0.80;;;22.40;52.60;;;;;;5074130;28;20440;-65
2022/05/25 12:33:01;;;;;;;1.70;0.73;;;22.50;52.00;;;;;;5074189;28;20439;-65
2022/05/25 12:35:30;;;;;;;1.70;0.60;;;22.60;51.30;;;;;;5074087;28;20766;-64
2022/05/25 12:37:59;;;;;;;1.70;0.70;;;22.60;52.30;;;;;;5073902;28;20529;-65
2022/05/25 12:40:45;;;;;;;2.70;0.67;;;22.70;50.80;;;;;;5073469;28;20440;-64
2022/05/25 12:43:52;;;;;;;1.50;0.60;;;22.70;50.40;;;;;;5073913;28;20497;-64
2022/05/25 12:49:40;;;;;;;2.50;0.83;;;23.00;54.20;;;;;;5073732;28;20497;-65
2022/05/25 12:52:43;;;;;;;2.57;0.70;;;23.10;54.50;;;;;;5073746;28;20526;-65
2022/05/25 12:55:32;;;;;;;2.90;0.87;;;23.20;53.30;;;;;;5051606;28;20447;-64
2022/05/25 12:57:59;;;;;;;3.40;0.80;;;23.30;53.90;;;;;;5073486;28;20469;-65
2022/05/25 13:00:39;;;;;;;2.43;0.87;;;23.30;54.70;;;;;;5073520;28;20445;-64
2022/05/25 13:03:21;;;;;;;1.97;0.70;;;23.10;54.90;;;;;;5073260;28;20435;-65
2022/05/25 13:05:55;;;;;;;1.97;0.83;;;23.00;53.90;;;;;;5073701;28;20523;-67
2022/05/25 13:08:58;;;;;;;1.97;0.80;;;22.80;53.20;;;;;;5073514;28;20627;-65
2022/05/25 13:11:35;;;;;;;1.70;1.00;;;22.60;53.70;;;;;;5066048;28;20785;-64
2022/05/25 13:14:06;;;;;;;2.20;0.80;;;22.50;54.30;;;;;;5073182;28;20497;-64
2022/05/25 13:16:56;;;;;;;1.73;0.73;;;22.50;55.30;;;;;;5073412;28;20447;-64
2022/05/25 13:19:39;;;;;;;2.13;0.90;;;22.70;56.70;;;;;;5073298;28;20532;-65
2022/05/25 13:22:22;;;;;;;2.43;0.90;;;23.00;56.90;;;;;;5073003;28;20959;-65
2022/05/25 13:25:02;;;;;;;1.70;0.80;;;23.20;55.50;;;;;;5072189;28;20440;-64
2022/05/25 13:27:45;;;;;;;3.03;1.03;;;23.30;53.80;;;;;;5073300;28;20475;-65
2022/05/25 13:30:48;;;;;;;2.67;0.80;;;23.40;54.40;;;;;;5073255;28;20922;-65
2022/05/25 13:33:25;;;;;;;2.20;0.77;;;23.30;54.00;;;;;;5073211;28;20852;-66
2022/05/25 13:35:56;;;;;;;6.03;1.10;;;23.20;53.70;;;;;;5073169;28;20514;-64
2022/05/25 13:38:33;;;;;;;2.10;0.70;;;23.20;54.00;;;;;;5073247;28;20440;-64
2022/05/25 13:41:08;;;;;;;1.50;0.70;;;23.20;55.70;;;;;;5072898;28;20510;-64
2022/05/25 13:43:55;;;;;;;3.27;1.00;;;23.20;55.20;;;;;;5073357;28;20489;-65
2022/05/25 13:46:33;;;;;;;2.00;0.90;;;23.00;54.00;;;;;;5072732;28;20537;-64